sensor_id;sensor_type;location;lat;lon;timestamp;P1;durP1;ratioP1;P2;durP2;ratioP2
14923;SDS011;7554;43.600;1.480;2024-03-22T00:02:14;22.90;;;11.77;;
14923;SDS011;7554;43.600;1.480;2024-03-22T00:04:42;23.67;;;13.07;;
14923;SDS011;7554;43.600;1.480;2024-03-22T00:07:09;21.47;;;12.43;;
14923;SDS011;7554;43.600;1.480;2024-03-22T00:09:36;22.53;;;12.63;;
14923;SDS011;7554;43.600;1.480;2024-03-22T00:12:04;23.47;;;12.57;;
14923;SDS011;7554;43.600;1.480;2024-03-22T00:14:30;24.27;;;12.57;;
14923;SDS011;7554;43.600;1.480;2024-03-22T00:16:58;23.17;;;12.27;;
14923;SDS011;7554;43.600;1.480;2024-03-22T00:19:24;20.40;;;11.63;;
14923;SDS011;7554;43.600;1.480;2024-03-22T00:21:53;21.57;;;12.37;;
14923;SDS011;7554;43.600;1.480;2024-03-22T00:24:20;24.10;;;12.53;;
14923;SDS011;7554;43.600;1.480;2024-03-22T00:26:47;24.13;;;11.17;;
14923;SDS011;7554;43.600;1.480;2024-03-22T00:29:14;18.87;;;10.67;;
14923;SDS011;7554;43.600;1.480;2024-03-22T00:31:41;15.90;;;10.70;;
14923;SDS011;7554;43.600;1.480;2024-03-22T00:34:09;22.67;;;11.60;;
14923;SDS011;7554;43.600;1.480;2024-03-22T00:36:35;21.87;;;10.20;;
14923;SDS011;7554;43.600;1.480;2024-03-22T00:39:04;23.40;;;10.13;;
14923;SDS011;7554;43.600;1.480;2024-03-22T00:41:31;16.17;;;10.83;;
14923;SDS011;7554;43.600;1.480;2024-03-22T00:43:58;18.73;;;10.57;;
14923;SDS011;7554;43.600;1.480;2024-03-22T00:46:25;20.13;;;10.93;;
14923;SDS011;7554;43.600;1.480;2024-03-22T00:48:52;18.80;;;9.80;;
14923;SDS011;7554;43.600;1.480;2024-03-22T00:51:18;21.53;;;10.93;;
14923;SDS011;7554;43.600;1.480;2024-03-22T00:53:46;18.53;;;10.37;;
14923;SDS011;7554;43.600;1.480;2024-03-22T00:56:14;19.43;;;10.17;;
14923;SDS011;7554;43.600;1.480;2024-03-22T00:58:42;20.10;;;9.73;;
14923;SDS011;7554;43.600;1.480;2024-03-22T01:01:08;23.00;;;9.90;;
14923;SDS011;7554;43.600;1.480;2024-03-22T01:03:35;20.60;;;10.43;;
14923;SDS011;7554;43.600;1.480;2024-03-22T01:06:02;19.10;;;10.60;;
14923;SDS011;7554;43.600;1.480;2024-03-22T01:08:29;20.63;;;10.57;;
14923;SDS011;7554;43.600;1.480;2024-03-22T01:10:56;22.20;;;10.30;;
14923;SDS011;7554;43.600;1.480;2024-03-22T01:13:25;15.97;;;9.40;;
14923;SDS011;7554;43.600;1.480;2024-03-22T01:15:51;22.10;;;10.10;;
14923;SDS011;7554;43.600;1.480;2024-03-22T01:18:19;18.60;;;9.67;;
14923;SDS011;7554;43.600;1.480;2024-03-22T01:20:45;17.67;;;10.13;;
14923;SDS011;7554;43.600;1.480;2024-03-22T01:23:13;19.73;;;10.60;;
14923;SDS011;7554;43.600;1.480;2024-03-22T01:25:39;19.07;;;9.63;;
14923;SDS011;7554;43.600;1.480;2024-03-22T01:28:06;19.50;;;10.47;;
14923;SDS011;7554;43.600;1.480;2024-03-22T01:30:35;18.43;;;10.47;;
14923;SDS011;7554;43.600;1.480;2024-03-22T01:33:02;24.03;;;10.33;;
14923;SDS011;7554;43.600;1.480;2024-03-22T01:35:29;18.23;;;10.00;;
14923;SDS011;7554;43.600;1.480;2024-03-22T01:37:56;19.33;;;10.47;;
14923;SDS011;7554;43.600;1.480;2024-03-22T01:40:23;21.80;;;10.90;;
14923;SDS011;7554;43.600;1.480;2024-03-22T01:42:52;16.30;;;10.43;;
14923;SDS011;7554;43.600;1.480;2024-03-22T01:45:20;20.93;;;10.63;;
14923;SDS011;7554;43.600;1.480;2024-03-22T01:47:49;17.67;;;10.13;;
14923;SDS011;7554;43.600;1.480;2024-03-22T01:50:16;20.20;;;10.13;;
14923;SDS011;7554;43.600;1.480;2024-03-22T01:52:43;18.33;;;10.43;;
14923;SDS011;7554;43.600;1.480;2024-03-22T01:55:11;19.40;;;9.90;;
14923;SDS011;7554;43.600;1.480;2024-03-22T01:57:37;23.57;;;11.20;;
14923;SDS011;7554;43.600;1.480;2024-03-22T02:00:06;20.50;;;9.90;;
14923;SDS011;7554;43.600;1.480;2024-03-22T02:02:33;21.83;;;10.80;;
14923;SDS011;7554;43.600;1.480;2024-03-22T02:05:12;19.70;;;10.47;;
14923;SDS011;7554;43.600;1.480;2024-03-22T02:07:38;16.83;;;10.50;;
14923;SDS011;7554;43.600;1.480;2024-03-22T02:10:06;24.00;;;9.70;;
14923;SDS011;7554;43.600;1.480;2024-03-22T02:12:33;18.40;;;10.43;;
14923;SDS011;7554;43.600;1.480;2024-03-22T02:15:01;18.77;;;10.00;;
14923;SDS011;7554;43.600;1.480;2024-03-22T02:17:28;21.23;;;9.27;;
14923;SDS011;7554;43.600;1.480;2024-03-22T02:19:55;20.47;;;9.83;;
14923;SDS011;7554;43.600;1.480;2024-03-22T02:22:23;17.33;;;9.80;;
14923;SDS011;7554;43.600;1.480;2024-03-22T02:24:52;16.60;;;9.93;;
14923;SDS011;7554;43.600;1.480;2024-03-22T02:27:19;22.60;;;10.70;;
14923;SDS011;7554;43.600;1.480;2024-03-22T02:29:46;20.73;;;9.90;;
14923;SDS011;7554;43.600;1.480;2024-03-22T02:32:13;17.77;;;9.57;;
14923;SDS011;7554;43.600;1.480;2024-03-22T02:34:40;16.10;;;9.00;;
14923;SDS011;7554;43.600;1.480;2024-03-22T02:37:06;17.47;;;9.73;;
14923;SDS011;7554;43.600;1.480;2024-03-22T02:39:34;15.40;;;9.40;;
14923;SDS011;7554;43.600;1.480;2024-03-22T02:42:02;14.73;;;9.03;;
14923;SDS011;7554;43.600;1.480;2024-03-22T02:44:29;17.90;;;9.90;;
14923;SDS011;7554;43.600;1.480;2024-03-22T02:46:56;20.23;;;9.73;;
14923;SDS011;7554;43.600;1.480;2024-03-22T02:49:24;17.70;;;9.17;;
14923;SDS011;7554;43.600;1.480;2024-03-22T02:51:50;18.57;;;9.13;;
14923;SDS011;7554;43.600;1.480;2024-03-22T02:54:18;22.00;;;9.67;;
14923;SDS011;7554;43.600;1.480;2024-03-22T02:56:44;15.63;;;9.17;;
14923;SDS011;7554;43.600;1.480;2024-03-22T02:59:13;17.73;;;9.17;;
14923;SDS011;7554;43.600;1.480;2024-03-22T03:01:40;13.33;;;9.23;;
14923;SDS011;7554;43.600;1.480;2024-03-22T03:04:07;16.83;;;9.07;;
14923;SDS011;7554;43.600;1.480;2024-03-22T03:06:34;18.97;;;9.00;;
14923;SDS011;7554;43.600;1.480;2024-03-22T03:09:01;16.43;;;9.60;;
14923;SDS011;7554;43.600;1.480;2024-03-22T03:11:29;18.37;;;8.87;;
14923;SDS011;7554;43.600;1.480;2024-03-22T03:13:57;18.13;;;9.27;;
14923;SDS011;7554;43.600;1.480;2024-03-22T03:16:25;13.10;;;8.40;;
14923;SDS011;7554;43.600;1.480;2024-03-22T03:18:52;14.90;;;8.60;;
14923;SDS011;7554;43.600;1.480;2024-03-22T03:21:19;13.30;;;8.07;;
14923;SDS011;7554;43.600;1.480;2024-03-22T03:23:46;16.87;;;8.57;;
14923;SDS011;7554;43.600;1.480;2024-03-22T03:26:12;13.77;;;8.33;;
14923;SDS011;7554;43.600;1.480;2024-03-22T03:28:40;16.13;;;8.90;;
14923;SDS011;7554;43.600;1.480;2024-03-22T03:31:06;16.23;;;8.67;;
14923;SDS011;7554;43.600;1.480;2024-03-22T03:33:35;20.83;;;9.73;;
14923;SDS011;7554;43.600;1.480;2024-03-22T03:36:02;21.93;;;10.00;;
14923;SDS011;7554;43.600;1.480;2024-03-22T03:38:29;14.30;;;9.33;;
14923;SDS011;7554;43.600;1.480;2024-03-22T03:40:56;16.10;;;8.70;;
14923;SDS011;7554;43.600;1.480;2024-03-22T03:43:23;19.40;;;8.93;;
14923;SDS011;7554;43.600;1.480;2024-03-22T03:45:50;15.80;;;8.83;;
14923;SDS011;7554;43.600;1.480;2024-03-22T03:48:19;13.93;;;8.60;;
14923;SDS011;7554;43.600;1.480;2024-03-22T03:50:52;15.27;;;8.37;;
14923;SDS011;7554;43.600;1.480;2024-03-22T03:53:20;17.00;;;8.50;;
14923;SDS011;7554;43.600;1.480;2024-03-22T03:55:46;16.50;;;9.37;;
14923;SDS011;7554;43.600;1.480;2024-03-22T03:58:14;14.87;;;8.70;;
14923;SDS011;7554;43.600;1.480;2024-03-22T04:00:41;14.00;;;8.13;;
14923;SDS011;7554;43.600;1.480;2024-03-22T04:03:08;15.40;;;8.63;;
14923;SDS011;7554;43.600;1.480;2024-03-22T04:05:35;17.53;;;8.57;;
14923;SDS011;7554;43.600;1.480;2024-03-22T04:08:04;16.10;;;9.33;;
14923;SDS011;7554;43.600;1.480;2024-03-22T04:10:31;19.50;;;9.90;;
14923;SDS011;7554;43.600;1.480;2024-03-22T04:12:58;16.00;;;9.37;;
14923;SDS011;7554;43.600;1.480;2024-03-22T04:15:24;21.57;;;11.00;;
14923;SDS011;7554;43.600;1.480;2024-03-22T04:17:52;16.43;;;9.47;;
14923;SDS011;7554;43.600;1.480;2024-03-22T04:20:18;16.47;;;9.23;;
14923;SDS011;7554;43.600;1.480;2024-03-22T04:22:46;16.43;;;8.90;;
14923;SDS011;7554;43.600;1.480;2024-03-22T04:25:16;20.07;;;10.77;;
14923;SDS011;7554;43.600;1.480;2024-03-22T04:27:43;19.23;;;10.17;;
14923;SDS011;7554;43.600;1.480;2024-03-22T04:30:10;16.73;;;9.90;;
14923;SDS011;7554;43.600;1.480;2024-03-22T04:32:38;19.03;;;10.60;;
14923;SDS011;7554;43.600;1.480;2024-03-22T04:35:05;16.67;;;9.37;;
14923;SDS011;7554;43.600;1.480;2024-03-22T04:37:32;17.30;;;10.77;;
14923;SDS011;7554;43.600;1.480;2024-03-22T04:40:00;20.43;;;10.77;;
14923;SDS011;7554;43.600;1.480;2024-03-22T04:42:29;18.47;;;10.40;;
14923;SDS011;7554;43.600;1.480;2024-03-22T04:44:56;19.30;;;10.90;;
14923;SDS011;7554;43.600;1.480;2024-03-22T04:47:24;18.57;;;10.57;;
14923;SDS011;7554;43.600;1.480;2024-03-22T04:49:51;20.83;;;11.20;;
14923;SDS011;7554;43.600;1.480;2024-03-22T04:52:18;20.00;;;10.80;;
14923;SDS011;7554;43.600;1.480;2024-03-22T04:54:45;20.47;;;10.93;;
14923;SDS011;7554;43.600;1.480;2024-03-22T04:57:12;17.57;;;11.67;;
14923;SDS011;7554;43.600;1.480;2024-03-22T04:59:40;22.40;;;11.77;;
14923;SDS011;7554;43.600;1.480;2024-03-22T05:02:08;22.67;;;12.60;;
14923;SDS011;7554;43.600;1.480;2024-03-22T05:04:34;17.60;;;11.37;;
14923;SDS011;7554;43.600;1.480;2024-03-22T05:07:02;19.00;;;11.20;;
14923;SDS011;7554;43.600;1.480;2024-03-22T05:09:29;18.60;;;11.33;;
14923;SDS011;7554;43.600;1.480;2024-03-22T05:11:57;17.70;;;11.67;;
14923;SDS011;7554;43.600;1.480;2024-03-22T05:14:23;21.97;;;12.10;;
14923;SDS011;7554;43.600;1.480;2024-03-22T05:16:52;35.80;;;16.73;;
14923;SDS011;7554;43.600;1.480;2024-03-22T05:19:19;22.00;;;11.17;;
14923;SDS011;7554;43.600;1.480;2024-03-22T05:21:46;19.73;;;10.50;;
14923;SDS011;7554;43.600;1.480;2024-03-22T05:24:13;17.27;;;11.30;;
14923;SDS011;7554;43.600;1.480;2024-03-22T05:26:40;30.80;;;11.93;;
14923;SDS011;7554;43.600;1.480;2024-03-22T05:29:07;57.47;;;20.27;;
14923;SDS011;7554;43.600;1.480;2024-03-22T05:31:35;19.53;;;11.07;;
14923;SDS011;7554;43.600;1.480;2024-03-22T05:34:12;20.30;;;11.50;;
14923;SDS011;7554;43.600;1.480;2024-03-22T05:36:41;21.13;;;11.20;;
14923;SDS011;7554;43.600;1.480;2024-03-22T05:39:07;17.63;;;10.90;;
14923;SDS011;7554;43.600;1.480;2024-03-22T05:41:36;19.53;;;11.27;;
14923;SDS011;7554;43.600;1.480;2024-03-22T05:44:02;24.53;;;11.10;;
14923;SDS011;7554;43.600;1.480;2024-03-22T05:46:30;19.80;;;10.23;;
14923;SDS011;7554;43.600;1.480;2024-03-22T05:48:57;19.50;;;10.60;;
14923;SDS011;7554;43.600;1.480;2024-03-22T05:51:26;16.83;;;10.53;;
14923;SDS011;7554;43.600;1.480;2024-03-22T05:53:52;18.60;;;10.47;;
14923;SDS011;7554;43.600;1.480;2024-03-22T05:56:20;18.17;;;10.20;;
14923;SDS011;7554;43.600;1.480;2024-03-22T05:58:46;19.40;;;10.43;;
14923;SDS011;7554;43.600;1.480;2024-03-22T06:01:14;17.10;;;11.30;;
14923;SDS011;7554;43.600;1.480;2024-03-22T06:03:40;18.13;;;10.03;;
14923;SDS011;7554;43.600;1.480;2024-03-22T06:06:08;19.47;;;10.47;;
14923;SDS011;7554;43.600;1.480;2024-03-22T06:08:36;20.40;;;10.47;;
14923;SDS011;7554;43.600;1.480;2024-03-22T06:11:06;17.40;;;9.97;;
14923;SDS011;7554;43.600;1.480;2024-03-22T06:13:34;21.77;;;10.47;;
14923;SDS011;7554;43.600;1.480;2024-03-22T06:16:01;18.40;;;10.27;;
14923;SDS011;7554;43.600;1.480;2024-03-22T06:18:30;15.10;;;9.03;;
14923;SDS011;7554;43.600;1.480;2024-03-22T06:20:56;16.27;;;10.03;;
14923;SDS011;7554;43.600;1.480;2024-03-22T06:23:24;18.70;;;9.40;;
14923;SDS011;7554;43.600;1.480;2024-03-22T06:25:55;17.77;;;9.50;;
14923;SDS011;7554;43.600;1.480;2024-03-22T06:28:22;16.17;;;9.13;;
14923;SDS011;7554;43.600;1.480;2024-03-22T06:30:49;15.67;;;9.07;;
14923;SDS011;7554;43.600;1.480;2024-03-22T06:33:17;16.43;;;8.20;;
14923;SDS011;7554;43.600;1.480;2024-03-22T06:35:44;13.83;;;7.40;;
14923;SDS011;7554;43.600;1.480;2024-03-22T06:38:12;17.63;;;8.70;;
14923;SDS011;7554;43.600;1.480;2024-03-22T06:40:38;19.37;;;7.90;;
14923;SDS011;7554;43.600;1.480;2024-03-22T06:43:07;19.17;;;8.80;;
14923;SDS011;7554;43.600;1.480;2024-03-22T06:45:34;19.23;;;9.03;;
14923;SDS011;7554;43.600;1.480;2024-03-22T06:48:01;16.70;;;7.73;;
14923;SDS011;7554;43.600;1.480;2024-03-22T06:50:28;19.73;;;9.17;;
14923;SDS011;7554;43.600;1.480;2024-03-22T06:52:55;14.50;;;8.03;;
14923;SDS011;7554;43.600;1.480;2024-03-22T06:55:22;14.33;;;8.20;;
14923;SDS011;7554;43.600;1.480;2024-03-22T06:57:50;15.50;;;8.07;;
14923;SDS011;7554;43.600;1.480;2024-03-22T07:00:19;21.97;;;8.70;;
14923;SDS011;7554;43.600;1.480;2024-03-22T07:02:46;15.90;;;8.67;;
14923;SDS011;7554;43.600;1.480;2024-03-22T07:05:13;18.17;;;7.87;;
14923;SDS011;7554;43.600;1.480;2024-03-22T07:07:40;11.97;;;7.93;;
14923;SDS011;7554;43.600;1.480;2024-03-22T07:10:07;14.90;;;8.53;;
14923;SDS011;7554;43.600;1.480;2024-03-22T07:12:34;17.90;;;8.73;;
14923;SDS011;7554;43.600;1.480;2024-03-22T07:15:01;22.13;;;9.40;;
14923;SDS011;7554;43.600;1.480;2024-03-22T07:17:30;16.63;;;9.33;;
14923;SDS011;7554;43.600;1.480;2024-03-22T07:19:57;20.97;;;9.77;;
14923;SDS011;7554;43.600;1.480;2024-03-22T07:22:24;21.07;;;9.90;;
14923;SDS011;7554;43.600;1.480;2024-03-22T07:24:51;22.33;;;9.87;;
14923;SDS011;7554;43.600;1.480;2024-03-22T07:27:19;17.20;;;9.07;;
14923;SDS011;7554;43.600;1.480;2024-03-22T07:29:45;15.03;;;9.37;;
14923;SDS011;7554;43.600;1.480;2024-03-22T07:32:13;18.53;;;8.87;;
14923;SDS011;7554;43.600;1.480;2024-03-22T07:34:41;13.80;;;9.53;;
14923;SDS011;7554;43.600;1.480;2024-03-22T07:37:08;14.10;;;9.07;;
14923;SDS011;7554;43.600;1.480;2024-03-22T07:39:34;19.10;;;9.43;;
14923;SDS011;7554;43.600;1.480;2024-03-22T07:42:02;17.30;;;9.77;;
14923;SDS011;7554;43.600;1.480;2024-03-22T07:44:28;16.33;;;9.47;;
14923;SDS011;7554;43.600;1.480;2024-03-22T07:46:56;13.50;;;9.03;;
14923;SDS011;7554;43.600;1.480;2024-03-22T07:49:22;14.40;;;8.93;;
14923;SDS011;7554;43.600;1.480;2024-03-22T07:51:51;19.93;;;9.63;;
14923;SDS011;7554;43.600;1.480;2024-03-22T07:54:18;17.70;;;9.70;;
14923;SDS011;7554;43.600;1.480;2024-03-22T07:56:46;18.47;;;9.50;;
14923;SDS011;7554;43.600;1.480;2024-03-22T07:59:12;16.87;;;9.00;;
14923;SDS011;7554;43.600;1.480;2024-03-22T08:01:40;17.33;;;8.90;;
14923;SDS011;7554;43.600;1.480;2024-03-22T08:04:06;17.83;;;9.50;;
14923;SDS011;7554;43.600;1.480;2024-03-22T08:06:34;18.07;;;9.17;;
14923;SDS011;7554;43.600;1.480;2024-03-22T08:09:02;17.60;;;9.27;;
14923;SDS011;7554;43.600;1.480;2024-03-22T08:11:29;15.63;;;9.63;;
14923;SDS011;7554;43.600;1.480;2024-03-22T08:13:56;15.03;;;9.23;;
14923;SDS011;7554;43.600;1.480;2024-03-22T08:16:27;15.50;;;9.83;;
14923;SDS011;7554;43.600;1.480;2024-03-22T08:18:54;18.40;;;10.00;;
14923;SDS011;7554;43.600;1.480;2024-03-22T08:21:22;17.10;;;10.33;;
14923;SDS011;7554;43.600;1.480;2024-03-22T08:23:48;18.63;;;9.47;;
14923;SDS011;7554;43.600;1.480;2024-03-22T08:26:17;16.10;;;9.07;;
14923;SDS011;7554;43.600;1.480;2024-03-22T08:28:44;13.30;;;9.07;;
14923;SDS011;7554;43.600;1.480;2024-03-22T08:31:11;20.30;;;10.13;;
14923;SDS011;7554;43.600;1.480;2024-03-22T08:33:38;20.67;;;9.77;;
14923;SDS011;7554;43.600;1.480;2024-03-22T08:36:05;20.20;;;8.87;;
14923;SDS011;7554;43.600;1.480;2024-03-22T08:38:32;24.27;;;9.33;;
14923;SDS011;7554;43.600;1.480;2024-03-22T08:41:00;19.77;;;9.13;;
14923;SDS011;7554;43.600;1.480;2024-03-22T08:43:28;16.87;;;9.67;;
14923;SDS011;7554;43.600;1.480;2024-03-22T08:45:55;22.07;;;10.00;;
14923;SDS011;7554;43.600;1.480;2024-03-22T08:48:23;17.27;;;9.03;;
14923;SDS011;7554;43.600;1.480;2024-03-22T08:50:50;18.63;;;9.07;;
14923;SDS011;7554;43.600;1.480;2024-03-22T08:53:17;14.77;;;8.23;;
14923;SDS011;7554;43.600;1.480;2024-03-22T08:55:47;16.20;;;8.73;;
14923;SDS011;7554;43.600;1.480;2024-03-22T08:58:14;13.73;;;7.53;;
14923;SDS011;7554;43.600;1.480;2024-03-22T09:00:44;14.97;;;7.90;;
14923;SDS011;7554;43.600;1.480;2024-03-22T09:03:10;17.70;;;7.90;;
14923;SDS011;7554;43.600;1.480;2024-03-22T09:05:39;16.90;;;8.40;;
14923;SDS011;7554;43.600;1.480;2024-03-22T09:08:06;17.60;;;9.30;;
14923;SDS011;7554;43.600;1.480;2024-03-22T09:10:34;20.33;;;8.83;;
14923;SDS011;7554;43.600;1.480;2024-03-22T09:13:00;19.20;;;8.93;;
14923;SDS011;7554;43.600;1.480;2024-03-22T09:15:28;12.83;;;8.30;;
14923;SDS011;7554;43.600;1.480;2024-03-22T09:17:56;17.37;;;8.90;;
14923;SDS011;7554;43.600;1.480;2024-03-22T09:20:23;17.30;;;8.13;;
14923;SDS011;7554;43.600;1.480;2024-03-22T09:22:50;13.67;;;8.50;;
14923;SDS011;7554;43.600;1.480;2024-03-22T09:25:17;20.30;;;8.47;;
14923;SDS011;7554;43.600;1.480;2024-03-22T09:27:44;16.77;;;8.30;;
14923;SDS011;7554;43.600;1.480;2024-03-22T09:30:12;16.43;;;9.03;;
14923;SDS011;7554;43.600;1.480;2024-03-22T09:32:38;12.80;;;7.57;;
14923;SDS011;7554;43.600;1.480;2024-03-22T09:35:08;13.07;;;7.87;;
14923;SDS011;7554;43.600;1.480;2024-03-22T09:37:34;11.50;;;7.20;;
14923;SDS011;7554;43.600;1.480;2024-03-22T09:40:02;17.50;;;8.50;;
14923;SDS011;7554;43.600;1.480;2024-03-22T09:42:32;17.60;;;8.20;;
14923;SDS011;7554;43.600;1.480;2024-03-22T09:45:00;17.27;;;8.10;;
14923;SDS011;7554;43.600;1.480;2024-03-22T09:47:28;15.03;;;7.60;;
14923;SDS011;7554;43.600;1.480;2024-03-22T09:49:55;15.33;;;7.67;;
14923;SDS011;7554;43.600;1.480;2024-03-22T09:52:24;16.40;;;7.73;;
14923;SDS011;7554;43.600;1.480;2024-03-22T09:54:52;16.73;;;7.87;;
14923;SDS011;7554;43.600;1.480;2024-03-22T09:57:19;16.07;;;7.73;;
14923;SDS011;7554;43.600;1.480;2024-03-22T09:59:47;16.73;;;6.80;;
14923;SDS011;7554;43.600;1.480;2024-03-22T10:02:13;16.33;;;7.57;;
14923;SDS011;7554;43.600;1.480;2024-03-22T10:04:41;16.17;;;7.47;;
14923;SDS011;7554;43.600;1.480;2024-03-22T10:07:07;14.83;;;7.27;;
14923;SDS011;7554;43.600;1.480;2024-03-22T10:09:37;16.00;;;7.80;;
14923;SDS011;7554;43.600;1.480;2024-03-22T10:12:03;11.60;;;7.27;;
14923;SDS011;7554;43.600;1.480;2024-03-22T10:14:31;16.57;;;7.80;;
14923;SDS011;7554;43.600;1.480;2024-03-22T10:16:58;16.20;;;7.70;;
14923;SDS011;7554;43.600;1.480;2024-03-22T10:19:26;18.77;;;6.77;;
14923;SDS011;7554;43.600;1.480;2024-03-22T10:21:59;16.73;;;7.40;;
14923;SDS011;7554;43.600;1.480;2024-03-22T10:24:26;13.03;;;7.30;;
14923;SDS011;7554;43.600;1.480;2024-03-22T10:26:55;13.07;;;7.00;;
14923;SDS011;7554;43.600;1.480;2024-03-22T10:29:22;16.13;;;6.77;;
14923;SDS011;7554;43.600;1.480;2024-03-22T10:31:49;16.60;;;6.83;;
14923;SDS011;7554;43.600;1.480;2024-03-22T10:34:17;13.37;;;6.60;;
14923;SDS011;7554;43.600;1.480;2024-03-22T10:36:44;15.83;;;7.07;;
14923;SDS011;7554;43.600;1.480;2024-03-22T10:39:13;18.50;;;6.20;;
14923;SDS011;7554;43.600;1.480;2024-03-22T10:41:42;14.13;;;6.53;;
14923;SDS011;7554;43.600;1.480;2024-03-22T10:44:11;16.27;;;6.70;;
14923;SDS011;7554;43.600;1.480;2024-03-22T10:46:38;13.83;;;6.10;;
14923;SDS011;7554;43.600;1.480;2024-03-22T10:49:11;16.57;;;6.90;;
14923;SDS011;7554;43.600;1.480;2024-03-22T10:51:41;10.83;;;6.30;;
14923;SDS011;7554;43.600;1.480;2024-03-22T10:54:09;12.47;;;5.90;;
14923;SDS011;7554;43.600;1.480;2024-03-22T10:56:37;17.60;;;6.10;;
14923;SDS011;7554;43.600;1.480;2024-03-22T10:59:05;11.60;;;6.03;;
14923;SDS011;7554;43.600;1.480;2024-03-22T11:01:33;14.17;;;6.27;;
14923;SDS011;7554;43.600;1.480;2024-03-22T11:04:05;13.07;;;6.13;;
14923;SDS011;7554;43.600;1.480;2024-03-22T11:06:31;13.23;;;5.83;;
14923;SDS011;7554;43.600;1.480;2024-03-22T11:08:59;12.40;;;5.80;;
14923;SDS011;7554;43.600;1.480;2024-03-22T11:11:27;14.87;;;5.27;;
14923;SDS011;7554;43.600;1.480;2024-03-22T11:13:56;13.63;;;5.23;;
14923;SDS011;7554;43.600;1.480;2024-03-22T11:16:23;10.27;;;5.30;;
14923;SDS011;7554;43.600;1.480;2024-03-22T11:18:52;14.27;;;6.07;;
14923;SDS011;7554;43.600;1.480;2024-03-22T11:21:18;12.83;;;5.03;;
14923;SDS011;7554;43.600;1.480;2024-03-22T11:23:46;13.10;;;5.00;;
14923;SDS011;7554;43.600;1.480;2024-03-22T11:26:12;11.20;;;4.67;;
14923;SDS011;7554;43.600;1.480;2024-03-22T11:28:40;10.23;;;4.17;;
14923;SDS011;7554;43.600;1.480;2024-03-22T11:31:06;8.80;;;4.53;;
14923;SDS011;7554;43.600;1.480;2024-03-22T11:33:34;11.30;;;4.40;;
14923;SDS011;7554;43.600;1.480;2024-03-22T11:36:03;13.73;;;4.70;;
14923;SDS011;7554;43.600;1.480;2024-03-22T11:38:31;13.97;;;4.30;;
14923;SDS011;7554;43.600;1.480;2024-03-22T11:40:57;8.90;;;4.40;;
14923;SDS011;7554;43.600;1.480;2024-03-22T11:43:26;14.60;;;5.33;;
14923;SDS011;7554;43.600;1.480;2024-03-22T11:45:53;20.17;;;4.83;;
14923;SDS011;7554;43.600;1.480;2024-03-22T11:48:21;9.27;;;4.87;;
14923;SDS011;7554;43.600;1.480;2024-03-22T11:50:49;11.13;;;4.43;;
14923;SDS011;7554;43.600;1.480;2024-03-22T11:53:17;10.27;;;4.67;;
14923;SDS011;7554;43.600;1.480;2024-03-22T11:55:44;15.10;;;5.60;;
14923;SDS011;7554;43.600;1.480;2024-03-22T11:58:11;33.87;;;9.37;;
14923;SDS011;7554;43.600;1.480;2024-03-22T12:00:38;12.97;;;4.93;;
14923;SDS011;7554;43.600;1.480;2024-03-22T12:03:05;24.37;;;5.50;;
14923;SDS011;7554;43.600;1.480;2024-03-22T12:05:32;12.47;;;4.93;;
14923;SDS011;7554;43.600;1.480;2024-03-22T12:07:59;9.63;;;4.60;;
14923;SDS011;7554;43.600;1.480;2024-03-22T12:10:28;9.30;;;4.53;;
14923;SDS011;7554;43.600;1.480;2024-03-22T12:12:55;16.73;;;5.30;;
14923;SDS011;7554;43.600;1.480;2024-03-22T12:15:22;11.07;;;5.00;;
14923;SDS011;7554;43.600;1.480;2024-03-22T12:17:49;7.67;;;4.67;;
14923;SDS011;7554;43.600;1.480;2024-03-22T12:20:16;9.30;;;4.87;;
14923;SDS011;7554;43.600;1.480;2024-03-22T12:22:43;10.10;;;4.03;;
14923;SDS011;7554;43.600;1.480;2024-03-22T12:25:10;8.20;;;4.27;;
14923;SDS011;7554;43.600;1.480;2024-03-22T12:27:38;13.37;;;3.90;;
14923;SDS011;7554;43.600;1.480;2024-03-22T12:30:06;8.77;;;3.97;;
14923;SDS011;7554;43.600;1.480;2024-03-22T12:32:33;7.70;;;4.20;;
14923;SDS011;7554;43.600;1.480;2024-03-22T12:35:01;8.77;;;4.47;;
14923;SDS011;7554;43.600;1.480;2024-03-22T12:37:27;12.17;;;4.57;;
14923;SDS011;7554;43.600;1.480;2024-03-22T12:39:55;16.87;;;5.17;;
14923;SDS011;7554;43.600;1.480;2024-03-22T12:42:21;10.03;;;4.13;;
14923;SDS011;7554;43.600;1.480;2024-03-22T12:44:50;9.43;;;3.77;;
14923;SDS011;7554;43.600;1.480;2024-03-22T12:47:17;10.87;;;4.40;;
14923;SDS011;7554;43.600;1.480;2024-03-22T12:49:44;10.27;;;4.57;;
14923;SDS011;7554;43.600;1.480;2024-03-22T12:52:11;12.93;;;4.53;;
14923;SDS011;7554;43.600;1.480;2024-03-22T12:54:38;7.47;;;4.13;;
14923;SDS011;7554;43.600;1.480;2024-03-22T12:57:05;10.63;;;4.17;;
14923;SDS011;7554;43.600;1.480;2024-03-22T12:59:33;9.10;;;3.90;;
14923;SDS011;7554;43.600;1.480;2024-03-22T13:02:01;10.73;;;4.07;;
14923;SDS011;7554;43.600;1.480;2024-03-22T13:04:28;9.60;;;4.03;;
14923;SDS011;7554;43.600;1.480;2024-03-22T13:06:55;10.50;;;4.17;;
14923;SDS011;7554;43.600;1.480;2024-03-22T13:09:22;9.27;;;4.80;;
14923;SDS011;7554;43.600;1.480;2024-03-22T13:11:48;34.87;;;9.50;;
14923;SDS011;7554;43.600;1.480;2024-03-22T13:14:16;9.20;;;3.73;;
14923;SDS011;7554;43.600;1.480;2024-03-22T13:16:42;6.97;;;3.67;;
14923;SDS011;7554;43.600;1.480;2024-03-22T13:19:11;6.00;;;3.10;;
14923;SDS011;7554;43.600;1.480;2024-03-22T13:21:40;11.10;;;3.30;;
14923;SDS011;7554;43.600;1.480;2024-03-22T13:24:12;7.80;;;3.47;;
14923;SDS011;7554;43.600;1.480;2024-03-22T13:26:39;17.53;;;3.67;;
14923;SDS011;7554;43.600;1.480;2024-03-22T13:29:06;5.97;;;3.17;;
14923;SDS011;7554;43.600;1.480;2024-03-22T13:31:33;9.57;;;3.27;;
14923;SDS011;7554;43.600;1.480;2024-03-22T13:34:00;17.97;;;3.83;;
14923;SDS011;7554;43.600;1.480;2024-03-22T13:36:28;12.77;;;3.57;;
14923;SDS011;7554;43.600;1.480;2024-03-22T13:38:57;9.23;;;3.70;;
14923;SDS011;7554;43.600;1.480;2024-03-22T13:41:24;10.27;;;3.17;;
14923;SDS011;7554;43.600;1.480;2024-03-22T13:43:51;12.80;;;3.80;;
14923;SDS011;7554;43.600;1.480;2024-03-22T13:46:18;10.27;;;3.53;;
14923;SDS011;7554;43.600;1.480;2024-03-22T13:48:45;10.30;;;3.60;;
14923;SDS011;7554;43.600;1.480;2024-03-22T13:51:13;10.73;;;3.90;;
14923;SDS011;7554;43.600;1.480;2024-03-22T13:53:42;11.83;;;3.40;;
14923;SDS011;7554;43.600;1.480;2024-03-22T13:56:08;10.30;;;3.47;;
14923;SDS011;7554;43.600;1.480;2024-03-22T13:58:36;7.67;;;3.27;;
14923;SDS011;7554;43.600;1.480;2024-03-22T14:01:03;11.77;;;3.77;;
14923;SDS011;7554;43.600;1.480;2024-03-22T14:03:30;11.20;;;3.27;;
14923;SDS011;7554;43.600;1.480;2024-03-22T14:05:57;7.30;;;2.83;;
14923;SDS011;7554;43.600;1.480;2024-03-22T14:08:24;11.43;;;2.80;;
14923;SDS011;7554;43.600;1.480;2024-03-22T14:10:52;9.70;;;3.00;;
14923;SDS011;7554;43.600;1.480;2024-03-22T14:13:20;12.13;;;2.97;;
14923;SDS011;7554;43.600;1.480;2024-03-22T14:15:46;16.37;;;3.50;;
14923;SDS011;7554;43.600;1.480;2024-03-22T14:18:14;10.40;;;2.97;;
14923;SDS011;7554;43.600;1.480;2024-03-22T14:20:40;7.20;;;2.63;;
14923;SDS011;7554;43.600;1.480;2024-03-22T14:23:08;8.50;;;3.20;;
14923;SDS011;7554;43.600;1.480;2024-03-22T14:25:34;7.37;;;3.07;;
14923;SDS011;7554;43.600;1.480;2024-03-22T14:28:03;11.43;;;2.80;;
14923;SDS011;7554;43.600;1.480;2024-03-22T14:30:30;9.97;;;2.77;;
14923;SDS011;7554;43.600;1.480;2024-03-22T14:32:57;7.00;;;3.03;;
14923;SDS011;7554;43.600;1.480;2024-03-22T14:35:23;9.40;;;2.90;;
14923;SDS011;7554;43.600;1.480;2024-03-22T14:37:51;5.90;;;2.87;;
14923;SDS011;7554;43.600;1.480;2024-03-22T14:40:18;8.97;;;3.20;;
14923;SDS011;7554;43.600;1.480;2024-03-22T14:42:46;9.77;;;3.40;;
14923;SDS011;7554;43.600;1.480;2024-03-22T14:45:13;7.03;;;2.80;;
14923;SDS011;7554;43.600;1.480;2024-03-22T14:47:46;13.13;;;3.30;;